sensor_id;sensor_type;location;lat;lon;timestamp;P1;durP1;ratioP1;P2;durP2;ratioP2
29416;SDS011;28421;51.030;4.006;2024-03-23T00:53:01;4.20;;;2.78;;
29416;SDS011;28421;51.030;4.006;2024-03-23T00:55:27;11.77;;;3.10;;
29416;SDS011;28421;51.030;4.006;2024-03-23T00:57:52;4.00;;;2.88;;
29416;SDS011;28421;51.030;4.006;2024-03-23T01:00:18;3.83;;;2.88;;
29416;SDS011;28421;51.030;4.006;2024-03-23T01:02:43;8.38;;;3.63;;
29416;SDS011;28421;51.030;4.006;2024-03-23T01:05:09;11.65;;;3.17;;
29416;SDS011;28421;51.030;4.006;2024-03-23T01:07:35;6.93;;;3.08;;
29416;SDS011;28421;51.030;4.006;2024-03-23T01:10:00;7.68;;;3.83;;
29416;SDS011;28421;51.030;4.006;2024-03-23T01:12:26;7.90;;;3.17;;
29416;SDS011;28421;51.030;4.006;2024-03-23T01:14:51;8.23;;;2.35;;
29416;SDS011;28421;51.030;4.006;2024-03-23T01:17:17;5.00;;;3.22;;
29416;SDS011;28421;51.030;4.006;2024-03-23T01:19:42;6.18;;;2.75;;
29416;SDS011;28421;51.030;4.006;2024-03-23T01:22:08;7.00;;;3.97;;
29416;SDS011;28421;51.030;4.006;2024-03-23T01:24:35;5.68;;;3.28;;
29416;SDS011;28421;51.030;4.006;2024-03-23T01:27:01;12.55;;;3.63;;
29416;SDS011;28421;51.030;4.006;2024-03-23T01:29:26;11.90;;;3.22;;
29416;SDS011;28421;51.030;4.006;2024-03-23T01:31:52;12.48;;;4.30;;
29416;SDS011;28421;51.030;4.006;2024-03-23T01:34:17;8.35;;;4.07;;
29416;SDS011;28421;51.030;4.006;2024-03-23T01:36:44;6.72;;;3.47;;
29416;SDS011;28421;51.030;4.006;2024-03-23T01:39:11;4.53;;;3.95;;
29416;SDS011;28421;51.030;4.006;2024-03-23T01:41:37;7.55;;;3.33;;
29416;SDS011;28421;51.030;4.006;2024-03-23T01:44:05;14.77;;;3.80;;
29416;SDS011;28421;51.030;4.006;2024-03-23T01:46:33;16.17;;;4.15;;
29416;SDS011;28421;51.030;4.006;2024-03-23T01:48:59;6.63;;;4.45;;
29416;SDS011;28421;51.030;4.006;2024-03-23T01:51:25;5.07;;;3.20;;
29416;SDS011;28421;51.030;4.006;2024-03-23T01:53:51;9.23;;;3.28;;
29416;SDS011;28421;51.030;4.006;2024-03-23T01:56:19;13.35;;;3.47;;
29416;SDS011;28421;51.030;4.006;2024-03-23T01:58:45;10.82;;;4.43;;
29416;SDS011;28421;51.030;4.006;2024-03-23T02:01:11;13.57;;;3.90;;
29416;SDS011;28421;51.030;4.006;2024-03-23T02:03:37;12.77;;;3.45;;
29416;SDS011;28421;51.030;4.006;2024-03-23T02:06:02;17.10;;;4.03;;
29416;SDS011;28421;51.030;4.006;2024-03-23T02:08:28;3.95;;;3.55;;
29416;SDS011;28421;51.030;4.006;2024-03-23T02:10:55;6.70;;;3.22;;
29416;SDS011;28421;51.030;4.006;2024-03-23T02:13:21;8.95;;;3.33;;
29416;SDS011;28421;51.030;4.006;2024-03-23T02:15:46;11.57;;;3.55;;
29416;SDS011;28421;51.030;4.006;2024-03-23T02:18:13;12.50;;;3.08;;
29416;SDS011;28421;51.030;4.006;2024-03-23T02:20:39;9.77;;;4.45;;
29416;SDS011;28421;51.030;4.006;2024-03-23T02:23:04;4.07;;;2.53;;
29416;SDS011;28421;51.030;4.006;2024-03-23T02:25:33;15.52;;;3.97;;
29416;SDS011;28421;51.030;4.006;2024-03-23T02:27:59;5.95;;;3.75;;
29416;SDS011;28421;51.030;4.006;2024-03-23T02:30:25;4.85;;;2.92;;
29416;SDS011;28421;51.030;4.006;2024-03-23T02:32:51;16.42;;;2.97;;
29416;SDS011;28421;51.030;4.006;2024-03-23T02:35:17;5.72;;;3.78;;
29416;SDS011;28421;51.030;4.006;2024-03-23T02:37:42;5.40;;;2.63;;
29416;SDS011;28421;51.030;4.006;2024-03-23T02:40:08;12.60;;;2.75;;
29416;SDS011;28421;51.030;4.006;2024-03-23T02:42:33;12.13;;;3.78;;
29416;SDS011;28421;51.030;4.006;2024-03-23T02:44:59;15.70;;;4.50;;
29416;SDS011;28421;51.030;4.006;2024-03-23T02:47:25;18.27;;;4.45;;
29416;SDS011;28421;51.030;4.006;2024-03-23T02:49:50;9.60;;;3.40;;
29416;SDS011;28421;51.030;4.006;2024-03-23T02:52:16;4.57;;;3.38;;
29416;SDS011;28421;51.030;4.006;2024-03-23T02:54:41;8.90;;;2.97;;
29416;SDS011;28421;51.030;4.006;2024-03-23T02:57:10;19.30;;;4.18;;
29416;SDS011;28421;51.030;4.006;2024-03-23T02:59:36;6.97;;;3.33;;
29416;SDS011;28421;51.030;4.006;2024-03-23T03:02:02;6.05;;;3.60;;
29416;SDS011;28421;51.030;4.006;2024-03-23T03:04:29;10.10;;;3.58;;
29416;SDS011;28421;51.030;4.006;2024-03-23T03:06:55;11.05;;;4.05;;
29416;SDS011;28421;51.030;4.006;2024-03-23T03:09:21;3.58;;;2.80;;
29416;SDS011;28421;51.030;4.006;2024-03-23T03:11:46;11.02;;;3.42;;
29416;SDS011;28421;51.030;4.006;2024-03-23T03:14:12;4.72;;;3.78;;
29416;SDS011;28421;51.030;4.006;2024-03-23T03:16:37;9.02;;;3.20;;
29416;SDS011;28421;51.030;4.006;2024-03-23T03:19:03;6.00;;;3.67;;
29416;SDS011;28421;51.030;4.006;2024-03-23T03:21:28;10.30;;;2.90;;
29416;SDS011;28421;51.030;4.006;2024-03-23T03:23:54;9.15;;;3.53;;
29416;SDS011;28421;51.030;4.006;2024-03-23T03:26:21;6.43;;;3.50;;
29416;SDS011;28421;51.030;4.006;2024-03-23T03:28:47;10.65;;;4.35;;
29416;SDS011;28421;51.030;4.006;2024-03-23T03:31:14;8.05;;;4.70;;
29416;SDS011;28421;51.030;4.006;2024-03-23T03:33:40;6.35;;;3.25;;
29416;SDS011;28421;51.030;4.006;2024-03-23T03:36:06;6.68;;;3.10;;
29416;SDS011;28421;51.030;4.006;2024-03-23T03:38:32;12.52;;;3.53;;
29416;SDS011;28421;51.030;4.006;2024-03-23T03:41:00;10.13;;;3.47;;
29416;SDS011;28421;51.030;4.006;2024-03-23T03:43:26;9.93;;;3.72;;
29416;SDS011;28421;51.030;4.006;2024-03-23T03:45:52;3.40;;;3.10;;
29416;SDS011;28421;51.030;4.006;2024-03-23T03:48:18;7.53;;;4.10;;
29416;SDS011;28421;51.030;4.006;2024-03-23T03:50:43;10.75;;;3.95;;
29416;SDS011;28421;51.030;4.006;2024-03-23T03:53:09;3.38;;;2.65;;
29416;SDS011;28421;51.030;4.006;2024-03-23T03:55:34;8.70;;;3.42;;
29416;SDS011;28421;51.030;4.006;2024-03-23T03:58:00;5.07;;;3.03;;
29416;SDS011;28421;51.030;4.006;2024-03-23T04:00:25;4.03;;;2.95;;
29416;SDS011;28421;51.030;4.006;2024-03-23T04:02:51;7.90;;;3.97;;
29416;SDS011;28421;51.030;4.006;2024-03-23T04:05:17;7.75;;;3.50;;
29416;SDS011;28421;51.030;4.006;2024-03-23T04:07:42;4.35;;;2.80;;
29416;SDS011;28421;51.030;4.006;2024-03-23T04:10:08;10.13;;;3.70;;
29416;SDS011;28421;51.030;4.006;2024-03-23T04:12:34;18.80;;;3.15;;
29416;SDS011;28421;51.030;4.006;2024-03-23T04:14:59;2.72;;;2.53;;
29416;SDS011;28421;51.030;4.006;2024-03-23T04:17:26;7.60;;;2.97;;
29416;SDS011;28421;51.030;4.006;2024-03-23T04:19:56;12.20;;;2.75;;
29416;SDS011;28421;51.030;4.006;2024-03-23T04:22:22;5.55;;;2.45;;
29416;SDS011;28421;51.030;4.006;2024-03-23T04:24:49;4.63;;;3.50;;
29416;SDS011;28421;51.030;4.006;2024-03-23T04:27:15;4.95;;;3.28;;
29416;SDS011;28421;51.030;4.006;2024-03-23T04:29:40;4.97;;;2.75;;
29416;SDS011;28421;51.030;4.006;2024-03-23T04:32:06;5.30;;;3.08;;
29416;SDS011;28421;51.030;4.006;2024-03-23T04:34:31;12.50;;;3.10;;
29416;SDS011;28421;51.030;4.006;2024-03-23T04:36:58;4.13;;;3.45;;
29416;SDS011;28421;51.030;4.006;2024-03-23T04:39:24;5.32;;;3.13;;
29416;SDS011;28421;51.030;4.006;2024-03-23T04:41:49;6.47;;;3.88;;
29416;SDS011;28421;51.030;4.006;2024-03-23T04:44:15;6.78;;;2.50;;
29416;SDS011;28421;51.030;4.006;2024-03-23T04:46:40;4.60;;;2.53;;
29416;SDS011;28421;51.030;4.006;2024-03-23T04:49:06;6.93;;;2.78;;
29416;SDS011;28421;51.030;4.006;2024-03-23T04:51:36;10.25;;;2.60;;
29416;SDS011;28421;51.030;4.006;2024-03-23T04:54:05;3.65;;;3.05;;
29416;SDS011;28421;51.030;4.006;2024-03-23T04:56:30;5.85;;;3.40;;
29416;SDS011;28421;51.030;4.006;2024-03-23T04:58:56;8.48;;;3.78;;
29416;SDS011;28421;51.030;4.006;2024-03-23T05:01:26;10.75;;;2.83;;
29416;SDS011;28421;51.030;4.006;2024-03-23T05:03:52;9.25;;;2.85;;
29416;SDS011;28421;51.030;4.006;2024-03-23T05:06:18;6.10;;;3.45;;
29416;SDS011;28421;51.030;4.006;2024-03-23T05:08:44;3.35;;;2.75;;
29416;SDS011;28421;51.030;4.006;2024-03-23T05:11:11;5.00;;;2.90;;
29416;SDS011;28421;51.030;4.006;2024-03-23T05:13:36;6.25;;;3.58;;
29416;SDS011;28421;51.030;4.006;2024-03-23T05:16:02;6.50;;;2.85;;
29416;SDS011;28421;51.030;4.006;2024-03-23T05:18:28;15.88;;;4.20;;
29416;SDS011;28421;51.030;4.006;2024-03-23T05:20:57;2.55;;;2.38;;
29416;SDS011;28421;51.030;4.006;2024-03-23T05:23:26;5.05;;;3.13;;
29416;SDS011;28421;51.030;4.006;2024-03-23T05:25:53;10.77;;;3.95;;
29416;SDS011;28421;51.030;4.006;2024-03-23T05:28:18;13.10;;;2.78;;
29416;SDS011;28421;51.030;4.006;2024-03-23T05:30:49;12.73;;;3.00;;
29416;SDS011;28421;51.030;4.006;2024-03-23T05:33:15;6.05;;;2.45;;
29416;SDS011;28421;51.030;4.006;2024-03-23T05:35:41;14.57;;;3.22;;
29416;SDS011;28421;51.030;4.006;2024-03-23T05:38:06;6.65;;;2.42;;
29416;SDS011;28421;51.030;4.006;2024-03-23T05:40:32;4.80;;;2.25;;
29416;SDS011;28421;51.030;4.006;2024-03-23T05:42:57;2.97;;;2.20;;
29416;SDS011;28421;51.030;4.006;2024-03-23T05:45:23;10.73;;;2.03;;
29416;SDS011;28421;51.030;4.006;2024-03-23T05:47:48;3.35;;;2.50;;
29416;SDS011;28421;51.030;4.006;2024-03-23T05:50:14;5.18;;;1.85;;
29416;SDS011;28421;51.030;4.006;2024-03-23T05:52:39;13.88;;;2.60;;
29416;SDS011;28421;51.030;4.006;2024-03-23T05:55:05;2.63;;;2.10;;
29416;SDS011;28421;51.030;4.006;2024-03-23T05:57:31;2.38;;;1.92;;
29416;SDS011;28421;51.030;4.006;2024-03-23T05:59:57;3.83;;;2.17;;
29416;SDS011;28421;51.030;4.006;2024-03-23T06:02:23;4.85;;;2.72;;
29416;SDS011;28421;51.030;4.006;2024-03-23T06:04:49;15.82;;;2.50;;
29416;SDS011;28421;51.030;4.006;2024-03-23T06:07:15;10.93;;;3.30;;
29416;SDS011;28421;51.030;4.006;2024-03-23T06:09:41;8.65;;;2.03;;
29416;SDS011;28421;51.030;4.006;2024-03-23T06:12:06;3.88;;;1.63;;
29416;SDS011;28421;51.030;4.006;2024-03-23T06:14:32;5.20;;;1.70;;
29416;SDS011;28421;51.030;4.006;2024-03-23T06:17:00;6.40;;;3.75;;
29416;SDS011;28421;51.030;4.006;2024-03-23T06:19:27;13.18;;;2.40;;
29416;SDS011;28421;51.030;4.006;2024-03-23T06:21:55;7.72;;;1.52;;
29416;SDS011;28421;51.030;4.006;2024-03-23T06:24:21;13.57;;;1.55;;
29416;SDS011;28421;51.030;4.006;2024-03-23T06:26:47;5.38;;;2.05;;
29416;SDS011;28421;51.030;4.006;2024-03-23T06:29:13;6.25;;;1.55;;
29416;SDS011;28421;51.030;4.006;2024-03-23T06:31:38;2.92;;;2.20;;
29416;SDS011;28421;51.030;4.006;2024-03-23T06:34:04;8.90;;;2.88;;
29416;SDS011;28421;51.030;4.006;2024-03-23T06:36:29;3.97;;;1.98;;
29416;SDS011;28421;51.030;4.006;2024-03-23T06:38:56;3.28;;;1.55;;
29416;SDS011;28421;51.030;4.006;2024-03-23T06:41:21;10.20;;;1.63;;
29416;SDS011;28421;51.030;4.006;2024-03-23T06:43:47;8.40;;;2.63;;
29416;SDS011;28421;51.030;4.006;2024-03-23T06:46:13;8.95;;;3.03;;
29416;SDS011;28421;51.030;4.006;2024-03-23T06:48:38;17.23;;;2.85;;
29416;SDS011;28421;51.030;4.006;2024-03-23T06:51:05;4.45;;;1.92;;
29416;SDS011;28421;51.030;4.006;2024-03-23T06:53:31;4.47;;;2.33;;
29416;SDS011;28421;51.030;4.006;2024-03-23T06:55:57;2.08;;;1.60;;
29416;SDS011;28421;51.030;4.006;2024-03-23T06:58:24;1.65;;;1.55;;
29416;SDS011;28421;51.030;4.006;2024-03-23T07:00:50;3.55;;;2.15;;
29416;SDS011;28421;51.030;4.006;2024-03-23T07:03:19;5.97;;;1.75;;
29416;SDS011;28421;51.030;4.006;2024-03-23T07:05:46;9.98;;;3.13;;
29416;SDS011;28421;51.030;4.006;2024-03-23T07:08:12;5.00;;;2.15;;
29416;SDS011;28421;51.030;4.006;2024-03-23T07:10:40;3.08;;;1.73;;
29416;SDS011;28421;51.030;4.006;2024-03-23T07:13:06;2.63;;;1.88;;
29416;SDS011;28421;51.030;4.006;2024-03-23T07:15:31;5.65;;;2.20;;
29416;SDS011;28421;51.030;4.006;2024-03-23T07:17:57;4.88;;;2.63;;
29416;SDS011;28421;51.030;4.006;2024-03-23T07:20:23;18.27;;;4.40;;
29416;SDS011;28421;51.030;4.006;2024-03-23T07:22:49;7.63;;;2.75;;
29416;SDS011;28421;51.030;4.006;2024-03-23T07:25:14;15.23;;;3.17;;
29416;SDS011;28421;51.030;4.006;2024-03-23T07:27:40;13.32;;;3.92;;
29416;SDS011;28421;51.030;4.006;2024-03-23T07:30:06;6.88;;;2.10;;
29416;SDS011;28421;51.030;4.006;2024-03-23T07:32:32;13.38;;;4.68;;
29416;SDS011;28421;51.030;4.006;2024-03-23T07:34:57;13.90;;;4.55;;
29416;SDS011;28421;51.030;4.006;2024-03-23T07:37:23;9.00;;;4.60;;
29416;SDS011;28421;51.030;4.006;2024-03-23T07:39:48;6.85;;;3.80;;
29416;SDS011;28421;51.030;4.006;2024-03-23T07:42:14;16.55;;;5.30;;
29416;SDS011;28421;51.030;4.006;2024-03-23T07:44:39;25.35;;;5.63;;
29416;SDS011;28421;51.030;4.006;2024-03-23T07:47:05;16.60;;;4.72;;
29416;SDS011;28421;51.030;4.006;2024-03-23T07:49:30;9.35;;;3.58;;
29416;SDS011;28421;51.030;4.006;2024-03-23T07:51:56;12.30;;;4.55;;
29416;SDS011;28421;51.030;4.006;2024-03-23T07:54:21;8.00;;;3.72;;
29416;SDS011;28421;51.030;4.006;2024-03-23T07:56:47;12.35;;;4.72;;
29416;SDS011;28421;51.030;4.006;2024-03-23T07:59:12;12.90;;;4.75;;
29416;SDS011;28421;51.030;4.006;2024-03-23T08:01:38;11.98;;;4.53;;
29416;SDS011;28421;51.030;4.006;2024-03-23T08:04:03;12.23;;;3.88;;
29416;SDS011;28421;51.030;4.006;2024-03-23T08:06:29;8.10;;;3.17;;
29416;SDS011;28421;51.030;4.006;2024-03-23T08:08:55;5.80;;;1.67;;
29416;SDS011;28421;51.030;4.006;2024-03-23T08:13:56;19.55;;;3.10;;
29416;SDS011;28421;51.030;4.006;2024-03-23T08:16:22;9.30;;;3.95;;
29416;SDS011;28421;51.030;4.006;2024-03-23T08:18:48;9.90;;;2.85;;
29416;SDS011;28421;51.030;4.006;2024-03-23T08:21:13;4.68;;;3.15;;
29416;SDS011;28421;51.030;4.006;2024-03-23T08:23:39;8.38;;;3.70;;
29416;SDS011;28421;51.030;4.006;2024-03-23T08:28:30;23.95;;;4.97;;
29416;SDS011;28421;51.030;4.006;2024-03-23T08:30:56;3.45;;;2.83;;
29416;SDS011;28421;51.030;4.006;2024-03-23T08:33:22;16.35;;;5.20;;
29416;SDS011;28421;51.030;4.006;2024-03-23T08:35:54;12.48;;;3.58;;
29416;SDS011;28421;51.030;4.006;2024-03-23T08:38:24;18.25;;;4.55;;
29416;SDS011;28421;51.030;4.006;2024-03-23T08:40:56;6.00;;;3.45;;
29416;SDS011;28421;51.030;4.006;2024-03-23T08:43:33;8.70;;;2.97;;
29416;SDS011;28421;51.030;4.006;2024-03-23T08:48:42;7.15;;;2.13;;
29416;SDS011;28421;51.030;4.006;2024-03-23T08:51:11;10.60;;;2.70;;
29416;SDS011;28421;51.030;4.006;2024-03-23T08:53:37;5.22;;;1.80;;
29416;SDS011;28421;51.030;4.006;2024-03-23T08:56:04;6.35;;;2.15;;
29416;SDS011;28421;51.030;4.006;2024-03-23T08:58:34;4.80;;;1.70;;
29416;SDS011;28421;51.030;4.006;2024-03-23T09:01:08;1.80;;;1.60;;
29416;SDS011;28421;51.030;4.006;2024-03-23T09:03:34;8.05;;;2.25;;
29416;SDS011;28421;51.030;4.006;2024-03-23T09:06:01;3.05;;;1.30;;
29416;SDS011;28421;51.030;4.006;2024-03-23T09:08:28;4.85;;;1.55;;
29416;SDS011;28421;51.030;4.006;2024-03-23T09:10:53;7.55;;;2.08;;
29416;SDS011;28421;51.030;4.006;2024-03-23T09:13:19;3.33;;;2.08;;
29416;SDS011;28421;51.030;4.006;2024-03-23T09:15:46;4.70;;;2.10;;
29416;SDS011;28421;51.030;4.006;2024-03-23T09:18:12;7.50;;;1.98;;
29416;SDS011;28421;51.030;4.006;2024-03-23T09:20:38;11.15;;;2.47;;
29416;SDS011;28421;51.030;4.006;2024-03-23T09:23:04;5.72;;;1.77;;
29416;SDS011;28421;51.030;4.006;2024-03-23T09:25:29;4.70;;;2.53;;
29416;SDS011;28421;51.030;4.006;2024-03-23T09:27:55;6.85;;;2.20;;
29416;SDS011;28421;51.030;4.006;2024-03-23T09:30:20;1.73;;;1.58;;
29416;SDS011;28421;51.030;4.006;2024-03-23T09:32:46;7.65;;;2.67;;
29416;SDS011;28421;51.030;4.006;2024-03-23T09:35:12;9.95;;;1.40;;
29416;SDS011;28421;51.030;4.006;2024-03-23T09:37:38;2.65;;;0.90;;
29416;SDS011;28421;51.030;4.006;2024-03-23T09:40:10;2.10;;;1.48;;
29416;SDS011;28421;51.030;4.006;2024-03-23T09:42:37;5.38;;;2.03;;
29416;SDS011;28421;51.030;4.006;2024-03-23T09:45:07;1.13;;;1.00;;
29416;SDS011;28421;51.030;4.006;2024-03-23T09:47:40;9.38;;;1.08;;
29416;SDS011;28421;51.030;4.006;2024-03-23T09:50:05;1.50;;;0.98;;
29416;SDS011;28421;51.030;4.006;2024-03-23T09:52:32;6.60;;;2.22;;
29416;SDS011;28421;51.030;4.006;2024-03-23T09:54:58;3.20;;;1.35;;
29416;SDS011;28421;51.030;4.006;2024-03-23T09:57:23;3.15;;;2.22;;
29416;SDS011;28421;51.030;4.006;2024-03-23T09:59:49;3.60;;;2.58;;
29416;SDS011;28421;51.030;4.006;2024-03-23T10:02:15;1.60;;;1.30;;
29416;SDS011;28421;51.030;4.006;2024-03-23T10:04:42;3.38;;;1.83;;
29416;SDS011;28421;51.030;4.006;2024-03-23T10:07:19;4.72;;;1.33;;
29416;SDS011;28421;51.030;4.006;2024-03-23T10:09:45;7.57;;;2.38;;
29416;SDS011;28421;51.030;4.006;2024-03-23T10:12:12;5.13;;;1.70;;
29416;SDS011;28421;51.030;4.006;2024-03-23T10:14:42;3.38;;;1.35;;
29416;SDS011;28421;51.030;4.006;2024-03-23T10:17:12;2.08;;;1.48;;
29416;SDS011;28421;51.030;4.006;2024-03-23T10:22:14;5.97;;;1.38;;
29416;SDS011;28421;51.030;4.006;2024-03-23T10:24:44;8.98;;;1.70;;
29416;SDS011;28421;51.030;4.006;2024-03-23T10:27:09;8.10;;;1.65;;
29416;SDS011;28421;51.030;4.006;2024-03-23T10:29:35;21.33;;;2.67;;
29416;SDS011;28421;51.030;4.006;2024-03-23T10:32:10;3.03;;;2.13;;
29416;SDS011;28421;51.030;4.006;2024-03-23T10:34:37;2.45;;;2.25;;
29416;SDS011;28421;51.030;4.006;2024-03-23T10:37:03;3.45;;;2.05;;
29416;SDS011;28421;51.030;4.006;2024-03-23T10:39:32;2.17;;;1.83;;
29416;SDS011;28421;51.030;4.006;2024-03-23T10:42:03;4.00;;;2.13;;
29416;SDS011;28421;51.030;4.006;2024-03-23T10:44:36;1.85;;;1.73;;
29416;SDS011;28421;51.030;4.006;2024-03-23T10:47:02;3.88;;;2.97;;
29416;SDS011;28421;51.030;4.006;2024-03-23T10:49:28;5.85;;;2.90;;
29416;SDS011;28421;51.030;4.006;2024-03-23T10:51:56;2.30;;;2.05;;
29416;SDS011;28421;51.030;4.006;2024-03-23T10:54:23;4.32;;;2.53;;
29416;SDS011;28421;51.030;4.006;2024-03-23T10:56:51;5.85;;;3.85;;
29416;SDS011;28421;51.030;4.006;2024-03-23T10:59:23;2.75;;;2.55;;
29416;SDS011;28421;51.030;4.006;2024-03-23T11:01:59;9.63;;;2.33;;
29416;SDS011;28421;51.030;4.006;2024-03-23T11:04:31;5.72;;;2.50;;
29416;SDS011;28421;51.030;4.006;2024-03-23T11:09:51;1.42;;;1.33;;
29416;SDS011;28421;51.030;4.006;2024-03-23T11:14:47;2.00;;;1.50;;
29416;SDS011;28421;51.030;4.006;2024-03-23T11:17:17;4.90;;;1.67;;
29416;SDS011;28421;51.030;4.006;2024-03-23T11:19:44;5.38;;;1.67;;
29416;SDS011;28421;51.030;4.006;2024-03-23T11:27:48;5.15;;;1.15;;
29416;SDS011;28421;51.030;4.006;2024-03-23T11:30:15;4.07;;;1.30;;
29416;SDS011;28421;51.030;4.006;2024-03-23T11:32:42;0.82;;;0.82;;
29416;SDS011;28421;51.030;4.006;2024-03-23T11:35:31;5.05;;;0.85;;
29416;SDS011;28421;51.030;4.006;2024-03-23T11:40:32;2.55;;;1.00;;
29416;SDS011;28421;51.030;4.006;2024-03-23T11:42:59;1.88;;;1.08;;
29416;SDS011;28421;51.030;4.006;2024-03-23T11:45:26;3.22;;;1.45;;
29416;SDS011;28421;51.030;4.006;2024-03-23T11:50:34;5.95;;;1.45;;
29416;SDS011;28421;51.030;4.006;2024-03-23T11:53:18;7.78;;;0.95;;
29416;SDS011;28421;51.030;4.006;2024-03-23T11:58:10;5.40;;;0.85;;
29416;SDS011;28421;51.030;4.006;2024-03-23T12:00:36;1.55;;;0.60;;
29416;SDS011;28421;51.030;4.006;2024-03-23T12:03:02;2.15;;;1.15;;
29416;SDS011;28421;51.030;4.006;2024-03-23T12:05:28;2.22;;;0.90;;
29416;SDS011;28421;51.030;4.006;2024-03-23T12:07:55;0.88;;;0.70;;
29416;SDS011;28421;51.030;4.006;2024-03-23T12:10:40;1.75;;;1.05;;
29416;SDS011;28421;51.030;4.006;2024-03-23T12:13:05;7.55;;;1.30;;
29416;SDS011;28421;51.030;4.006;2024-03-23T12:15:31;6.28;;;1.55;;
29416;SDS011;28421;51.030;4.006;2024-03-23T12:18:06;8.18;;;1.05;;
29416;SDS011;28421;51.030;4.006;2024-03-23T12:20:33;3.55;;;1.50;;
29416;SDS011;28421;51.030;4.006;2024-03-23T12:23:05;3.53;;;1.20;;
29416;SDS011;28421;51.030;4.006;2024-03-23T12:25:31;3.88;;;2.88;;
29416;SDS011;28421;51.030;4.006;2024-03-23T12:27:59;2.08;;;1.33;;
29416;SDS011;28421;51.030;4.006;2024-03-23T12:30:25;3.95;;;1.20;;
29416;SDS011;28421;51.030;4.006;2024-03-23T12:32:51;0.95;;;0.77;;
29416;SDS011;28421;51.030;4.006;2024-03-23T12:35:16;1.75;;;1.05;;
29416;SDS011;28421;51.030;4.006;2024-03-23T12:37:43;3.28;;;1.42;;
29416;SDS011;28421;51.030;4.006;2024-03-23T12:40:09;4.45;;;1.15;;
29416;SDS011;28421;51.030;4.006;2024-03-23T12:42:34;4.22;;;0.88;;
29416;SDS011;28421;51.030;4.006;2024-03-23T12:45:00;3.33;;;1.85;;
29416;SDS011;28421;51.030;4.006;2024-03-23T12:47:26;0.88;;;0.88;;
29416;SDS011;28421;51.030;4.006;2024-03-23T12:49:52;1.45;;;0.60;;
29416;SDS011;28421;51.030;4.006;2024-03-23T12:52:17;1.00;;;0.73;;
29416;SDS011;28421;51.030;4.006;2024-03-23T12:54:45;0.43;;;0.43;;
29416;SDS011;28421;51.030;4.006;2024-03-23T12:57:10;5.45;;;0.70;;
29416;SDS011;28421;51.030;4.006;2024-03-23T12:59:36;2.33;;;0.95;;
29416;SDS011;28421;51.030;4.006;2024-03-23T13:02:01;2.75;;;1.08;;
29416;SDS011;28421;51.030;4.006;2024-03-23T13:04:27;5.82;;;0.90;;
29416;SDS011;28421;51.030;4.006;2024-03-23T13:06:52;0.68;;;0.68;;
29416;SDS011;28421;51.030;4.006;2024-03-23T13:09:18;1.75;;;0.60;;
29416;SDS011;28421;51.030;4.006;2024-03-23T13:11:43;4.43;;;1.33;;
29416;SDS011;28421;51.030;4.006;2024-03-23T13:14:09;2.35;;;1.15;;
29416;SDS011;28421;51.030;4.006;2024-03-23T13:16:35;1.45;;;1.23;;
29416;SDS011;28421;51.030;4.006;2024-03-23T13:19:00;3.70;;;1.10;;
29416;SDS011;28421;51.030;4.006;2024-03-23T13:21:26;2.97;;;1.13;;
29416;SDS011;28421;51.030;4.006;2024-03-23T13:23:52;4.85;;;1.33;;
29416;SDS011;28421;51.030;4.006;2024-03-23T13:26:17;0.95;;;0.70;;
29416;SDS011;28421;51.030;4.006;2024-03-23T13:28:43;0.60;;;0.60;;
29416;SDS011;28421;51.030;4.006;2024-03-23T13:31:09;3.28;;;1.13;;
29416;SDS011;28421;51.030;4.006;2024-03-23T13:33:35;2.53;;;0.90;;
29416;SDS011;28421;51.030;4.006;2024-03-23T13:36:00;1.25;;;0.98;;
29416;SDS011;28421;51.030;4.006;2024-03-23T13:38:27;16.35;;;1.25;;
29416;SDS011;28421;51.030;4.006;2024-03-23T13:40:54;1.02;;;0.90;;
29416;SDS011;28421;51.030;4.006;2024-03-23T13:43:21;1.27;;;0.85;;
29416;SDS011;28421;51.030;4.006;2024-03-23T13:45:47;2.30;;;1.35;;
29416;SDS011;28421;51.030;4.006;2024-03-23T13:48:14;0.90;;;0.90;;
29416;SDS011;28421;51.030;4.006;2024-03-23T13:50:41;1.40;;;0.73;;
29416;SDS011;28421;51.030;4.006;2024-03-23T13:53:06;2.60;;;1.02;;
29416;SDS011;28421;51.030;4.006;2024-03-23T13:55:33;2.60;;;1.85;;
29416;SDS011;28421;51.030;4.006;2024-03-23T13:57:59;0.80;;;0.80;;
29416;SDS011;28421;51.030;4.006;2024-03-23T14:00:24;3.38;;;1.20;;
29416;SDS011;28421;51.030;4.006;2024-03-23T14:02:50;0.85;;;0.80;;
29416;SDS011;28421;51.030;4.006;2024-03-23T14:05:16;4.47;;;1.35;;
29416;SDS011;28421;51.030;4.006;2024-03-23T14:07:42;2.25;;;1.33;;
29416;SDS011;28421;51.030;4.006;2024-03-23T14:10:07;1.52;;;1.40;;
29416;SDS011;28421;51.030;4.006;2024-03-23T14:12:36;3.00;;;0.77;;
29416;SDS011;28421;51.030;4.006;2024-03-23T14:15:04;2.10;;;1.35;;
29416;SDS011;28421;51.030;4.006;2024-03-23T14:17:30;2.20;;;0.88;;
29416;SDS011;28421;51.030;4.006;2024-03-23T14:19:56;1.25;;;1.15;;
29416;SDS011;28421;51.030;4.006;2024-03-23T14:22:26;6.35;;;1.42;;
29416;SDS011;28421;51.030;4.006;2024-03-23T14:24:53;1.20;;;1.10;;
29416;SDS011;28421;51.030;4.006;2024-03-23T14:27:19;8.95;;;1.10;;
29416;SDS011;28421;51.030;4.006;2024-03-23T14:29:48;4.65;;;1.05;;
29416;SDS011;28421;51.030;4.006;2024-03-23T14:32:13;0.60;;;0.60;;
29416;SDS011;28421;51.030;4.006;2024-03-23T14:34:40;1.85;;;1.10;;
29416;SDS011;28421;51.030;4.006;2024-03-23T14:37:06;1.65;;;0.80;;
29416;SDS011;28421;51.030;4.006;2024-03-23T14:39:32;3.22;;;1.13;;
29416;SDS011;28421;51.030;4.006;2024-03-23T14:42:02;2.35;;;0.82;;
29416;SDS011;28421;51.030;4.006;2024-03-23T14:44:28;0.82;;;0.80;;
29416;SDS011;28421;51.030;4.006;2024-03-23T14:46:53;0.65;;;0.65;;
29416;SDS011;28421;51.030;4.006;2024-03-23T14:49:20;0.82;;;0.50;;
29416;SDS011;28421;51.030;4.006;2024-03-23T14:51:46;4.50;;;1.85;;
29416;SDS011;28421;51.030;4.006;2024-03-23T14:54:11;7.20;;;1.23;;
29416;SDS011;28421;51.030;4.006;2024-03-23T14:56:38;1.55;;;0.65;;
29416;SDS011;28421;51.030;4.006;2024-03-23T14:59:03;2.45;;;1.05;;
29416;SDS011;28421;51.030;4.006;2024-03-23T15:01:29;1.17;;;1.08;;
29416;SDS011;28421;51.030;4.006;2024-03-23T15:03:55;2.17;;;1.00;;
29416;SDS011;28421;51.030;4.006;2024-03-23T15:06:20;1.23;;;0.88;;
29416;SDS011;28421;51.030;4.006;2024-03-23T15:08:45;1.65;;;0.70;;
29416;SDS011;28421;51.030;4.006;2024-03-23T15:11:11;2.08;;;0.75;;
29416;SDS011;28421;51.030;4.006;2024-03-23T15:13:37;2.67;;;1.55;;
29416;SDS011;28421;51.030;4.006;2024-03-23T15:16:06;1.02;;;1.02;;
29416;SDS011;28421;51.030;4.006;2024-03-23T15:18:32;4.38;;;1.33;;
29416;SDS011;28421;51.030;4.006;2024-03-23T15:20:58;1.58;;;0.98;;
29416;SDS011;28421;51.030;4.006;2024-03-23T15:23:27;7.80;;;0.75;;
29416;SDS011;28421;51.030;4.006;2024-03-23T15:25:54;2.17;;;1.10;;
29416;SDS011;28421;51.030;4.006;2024-03-23T15:28:21;1.27;;;0.50;;
29416;SDS011;28421;51.030;4.006;2024-03-23T15:30:47;0.60;;;0.60;;
29416;SDS011;28421;51.030;4.006;2024-03-23T15:33:12;2.17;;;0.75;;
29416;SDS011;28421;51.030;4.006;2024-03-23T15:35:38;0.93;;;0.93;;
29416;SDS011;28421;51.030;4.006;2024-03-23T15:38:03;0.73;;;0.73;;
29416;SDS011;28421;51.030;4.006;2024-03-23T15:40:29;1.48;;;1.10;;
29416;SDS011;28421;51.030;4.006;2024-03-23T15:42:54;2.50;;;1.10;;
29416;SDS011;28421;51.030;4.006;2024-03-23T15:45:20;0.95;;;0.70;;
29416;SDS011;28421;51.030;4.006;2024-03-23T15:47:45;2.10;;;0.80;;
29416;SDS011;28421;51.030;4.006;2024-03-23T15:50:11;3.65;;;0.70;;
29416;SDS011;28421;51.030;4.006;2024-03-23T15:52:37;1.83;;;0.82;;
29416;SDS011;28421;51.030;4.006;2024-03-23T15:55:05;3.10;;;0.93;;
29416;SDS011;28421;51.030;4.006;2024-03-23T15:57:33;1.80;;;1.25;;
29416;SDS011;28421;51.030;4.006;2024-03-23T15:59:59;2.95;;;0.80;;
29416;SDS011;28421;51.030;4.006;2024-03-23T16:02:26;2.13;;;1.05;;